Latest Weather Observations for Wilsons Promontory

IDV60801

Issued at 7:31 pm EST Tuesday 4 August 2015 (issued every 30 minutes, with the page automatically refreshed every 10 minutes)

About weather observations | Map of weather stations | Latest weather observations for VIC | Other Formats
Station Details ID: 085096 Name: WILSONS PROMONTORY LIGHTHOUSE Lat: -39.13 Lon: 146.42 Height: 95.0 m
Data from the previous 72 hours. | See also: Recent months at Wilsons Promontory
Date/Time
EST
Temp
°C
App
Temp
°C
Dew
Point
Rel
Hum
%
Delta-T
°C
Wind Press
QNH
hPa
Press
MSL
hPa
Rain
since 9 am
mm
Dir
 
Spd
km/h
Gust
km/h
Spd
kts
Gust
kts
04/07:30pm 8.4 4.8 5.2 80 1.4 ENE 13 61 7 33 1011.1 - 2.6
04/07:00pm 8.6 5.0 4.8 77 1.7 W 13 48 7 26 1011.4 - 2.4
04/06:57pm 8.6 4.6 4.8 77 1.7 N 15 59 8 32 1011.5 - 2.4
04/06:44pm 8.8 0.3 5.0 77 1.7 NW 39 70 21 38 1011.2 - 2.4
04/06:30pm 8.6 3.6 4.8 77 1.7 N 20 50 11 27 1011.6 - 2.4
04/06:09pm 8.8 1.7 5.4 79 1.5 W 32 56 17 30 1011.7 - 2.4
04/06:00pm 8.9 3.7 5.5 79 1.5 NW 22 63 12 34 1012.2 1012.3 2.4
04/05:30pm 8.9 2.2 5.5 79 1.5 WNW 30 70 16 38 1012.5 - 2.4
04/05:00pm 8.7 2.0 5.4 80 1.5 WNW 30 78 16 42 1012.7 - 2.4
04/04:30pm 8.7 2.4 5.6 81 1.4 WNW 28 59 15 32 1013.1 - 2.4
04/04:21pm 8.7 2.0 5.6 81 1.4 W 30 61 16 33 1013.2 - 2.4
04/04:17pm 8.7 2.4 5.6 81 1.4 WNW 28 67 15 36 1013.3 - 2.4
04/04:04pm 8.8 -2.8 5.7 81 1.4 WNW 56 74 30 40 1012.9 - 2.4
04/04:03pm 8.8 -3.4 5.7 81 1.4 WNW 59 74 32 40 1012.7 - 2.4
04/04:00pm 8.8 0.8 5.9 82 1.3 W 37 67 20 36 1013.2 - 2.4
04/03:30pm 8.6 1.0 5.9 83 1.2 W 35 74 19 40 1014.0 - 2.4
04/03:00pm 8.5 -0.6 6.1 85 1.1 WNW 43 74 23 40 1014.0 1014.1 2.4
04/02:30pm 8.5 0.7 6.5 87 0.9 W 37 72 20 39 1014.5 - 2.4
04/02:00pm 7.8 -1.5 5.8 87 0.9 W 44 69 24 37 1015.0 - 2.4
04/01:30pm 8.4 0.8 5.9 84 1.1 W 35 63 19 34 1015.4 - 2.2
04/01:00pm 8.0 0.0 5.8 86 1.0 W 37 69 20 37 1015.7 - 2.2
04/12:30pm 7.9 -1.2 5.7 86 1.0 W 43 69 23 37 1016.5 - 2.2
04/12:00pm 8.1 0.9 6.1 87 0.9 W 33 57 18 31 1017.1 1017.2 2.0
04/11:30am 7.5 -1.7 5.5 87 0.9 W 43 70 23 38 1017.9 - 2.0
04/11:00am 8.1 0.5 5.7 85 1.1 W 35 61 19 33 1018.3 - 1.4
04/10:30am 8.0 0.1 6.0 87 0.9 W 37 59 20 32 1018.8 - 1.4
04/10:00am 7.0 -0.5 4.7 85 1.0 W 33 54 18 29 1019.0 - 1.0
04/09:30am 7.5 0.8 5.6 88 0.9 WNW 30 52 16 28 1019.2 - 0.0
04/09:07am 6.9 -0.3 5.2 89 0.8 WNW 32 50 17 27 1019.3 - 0.0
04/09:00am 6.9 -0.5 5.1 88 0.8 WNW 33 43 18 23 1019.2 1019.3 3.6
04/08:45am 6.8 -0.4 4.8 87 0.9 W 32 52 17 28 1019.4 - 3.6
04/08:30am 6.6 1.5 4.3 85 1.0 WNW 20 33 11 18 1019.6 - 2.2
04/08:00am 6.7 0.0 3.5 80 1.4 W 28 48 15 26 1020.0 - 1.6
04/07:35am 7.5 0.4 3.4 75 1.8 W 30 48 16 26 1019.6 - 1.0
04/07:30am 7.4 -0.1 3.5 76 1.7 W 32 48 17 26 1019.6 - 1.0
04/07:01am 8.0 0.0 4.0 76 1.7 W 35 56 19 30 1019.4 - 1.0
04/07:00am 8.2 0.2 4.0 75 1.8 W 35 52 19 28 1019.4 - 1.0
04/06:30am 7.7 -0.4 3.0 72 2.0 W 35 54 19 29 1019.4 - 1.0
04/06:28am 7.7 -0.4 3.0 72 2.0 W 35 54 19 29 1019.4 - 1.0
04/06:00am 7.3 -0.3 2.6 72 2.0 W 32 46 17 25 1019.4 1019.5 1.0
04/05:30am 7.5 0.3 2.8 72 2.0 W 30 48 16 26 1019.3 - 1.0
04/05:00am 7.4 1.4 3.1 74 1.8 W 24 39 13 21 1019.3 - 1.0
04/04:30am 7.2 0.8 3.1 75 1.7 W 26 37 14 20 1019.3 - 1.0
04/04:00am 7.8 0.4 3.8 76 1.7 WSW 32 44 17 24 1019.4 - 1.0
04/03:38am 7.6 0.9 3.8 77 1.6 W 28 48 15 26 1019.4 - 1.0
04/03:30am 7.2 2.0 3.8 79 1.5 W 20 41 11 22 1019.6 - 1.0
04/03:00am 7.0 0.7 3.6 79 1.4 W 26 43 14 23 1019.7 1019.8 1.0
04/02:30am 7.1 0.4 3.7 79 1.5 W 28 48 15 26 1019.7 - 1.0
04/02:28am 7.1 0.4 3.7 79 1.5 W 28 46 15 25 1019.7 - 1.0
04/02:00am 6.3 -1.3 3.1 80 1.3 W 32 48 17 26 1020.0 - 1.0
04/01:40am 6.7 0.0 3.5 80 1.4 W 28 52 15 28 1019.9 - 0.8
04/01:30am 6.8 -0.3 3.4 79 1.4 W 30 44 16 24 1020.1 - 0.8
04/01:20am 6.5 -1.6 3.1 79 1.4 WSW 35 65 19 35 1019.9 - 0.6
04/01:04am 7.1 -5.2 3.2 76 1.7 WSW 57 67 31 36 1019.3 - 0.6
04/01:01am 7.6 0.8 3.3 74 1.8 W 28 59 15 32 1019.9 - 0.6
04/01:00am 7.6 0.8 3.3 74 1.8 W 28 44 15 24 1020.0 - 0.6
04/12:47am 7.7 1.0 3.9 77 1.6 W 28 46 15 25 1020.2 - 0.6
04/12:30am 6.9 0.3 4.0 82 1.2 SW 28 39 15 21 1020.3 - 0.6
04/12:00am 6.4 0.4 3.4 81 1.3 W 24 44 13 24 1020.7 1020.8 0.6
 
Date/Time
EST
Temp
°C
App
Temp
°C
Dew
Point
Rel
Hum
%
Delta-T
°C
Wind Press
QNH
hPa
Press
MSL
hPa
Rain
since 9 am
mm
Dir
 
Spd
km/h
Gust
km/h
Spd
kts
Gust
kts
03/11:30pm 6.6 -1.1 3.2 79 1.4 W 33 56 18 30 1020.1 - 0.4
03/11:26pm 7.0 0.3 3.6 79 1.5 W 28 46 15 25 1020.2 - 0.4
03/11:00pm 6.5 0.4 2.9 78 1.5 W 24 35 13 19 1020.5 - 0.4
03/10:35pm 6.4 -2.9 3.0 79 1.4 W 41 59 22 32 1020.6 - 0.4
03/10:30pm 6.4 -3.5 3.0 79 1.4 W 44 61 24 33 1020.4 - 0.4
03/10:14pm 6.1 -5.7 2.7 79 1.4 WSW 54 72 29 39 1020.4 - 0.4
03/10:06pm 7.2 -5.8 3.3 76 1.7 SW 61 72 33 39 1019.4 - 0.2
03/10:04pm 7.2 0.0 2.9 74 1.8 SW 30 69 16 37 1019.5 - 0.2
03/10:00pm 7.4 -4.3 3.1 74 1.8 SW 54 69 29 37 1019.3 - 0.2
03/09:35pm 6.8 -3.4 3.1 77 1.6 SW 46 83 25 45 1018.7 - 0.2
03/09:32pm 7.2 -8.4 2.9 74 1.8 SW 74 83 40 45 1018.9 - 0.2
03/09:30pm 8.2 -2.9 2.2 66 2.5 WSW 50 76 27 41 1019.4 - 0.2
03/09:06pm 8.3 -4.4 0.8 59 3.0 WSW 57 76 31 41 1019.3 - 0.2
03/09:00pm 8.3 -5.4 1.9 64 2.6 WSW 63 76 34 41 1019.0 1019.1 0.2
03/08:55pm 8.4 -3.4 2.6 67 2.5 WSW 54 67 29 36 1019.3 - 0.2
03/08:30pm 7.3 -0.2 3.4 76 1.7 W 32 57 17 31 1019.6 - 0.2
03/08:28pm 7.3 0.2 3.4 76 1.7 W 30 50 16 27 1019.6 - 0.2
03/08:23pm 7.6 1.0 4.0 78 1.6 W 28 50 15 27 1019.7 - 0.2
03/08:16pm 6.8 -1.7 3.1 77 1.6 SW 37 56 20 30 1019.6 - 0.2
03/08:07pm 6.7 -1.0 2.4 74 1.8 WSW 32 50 17 27 1019.8 - 0.2
03/08:00pm 7.0 -1.7 2.3 72 1.9 W 37 50 20 27 1019.8 - 0.2
03/07:47pm 6.6 -2.4 2.5 75 1.7 W 39 67 21 36 1019.6 - 0.2
03/07:36pm 7.1 -5.6 3.2 76 1.7 W 59 78 32 42 1018.9 - 0.0
03/07:30pm 7.7 -6.1 3.4 74 1.8 WSW 65 78 35 42 1017.9 - 0.0
03/07:00pm 8.2 -5.0 0.0 56 3.2 WSW 59 82 32 44 1017.7 - 0.0
03/06:47pm 8.1 -4.6 1.0 61 2.9 WSW 57 76 31 41 1017.9 - 0.0
03/06:37pm 7.5 -6.1 0.0 59 2.9 SW 61 102 33 55 1017.8 - 0.0
03/06:30pm 7.5 -11.1 1.8 67 2.3 SW 89 102 48 55 1016.1 - 0.0
03/06:29pm 7.5 -10.7 1.8 67 2.3 WSW 87 96 47 52 1016.3 - 0.0
03/06:27pm 8.1 -4.4 1.9 65 2.6 WSW 57 87 31 47 1017.3 - 0.0
03/06:00pm 7.4 -6.7 1.5 66 2.4 SW 65 80 35 43 1017.0 1017.1 0.0
03/05:43pm 7.0 -7.0 2.3 72 1.9 SW 65 96 35 52 1017.0 - 0.0
03/05:38pm 7.3 -10.8 2.8 73 1.9 SW 87 96 47 52 1015.5 - 0.0
03/05:35pm 7.6 -6.7 2.5 70 2.1 SW 67 89 36 48 1016.3 - 0.0
03/05:30pm 7.6 -6.1 1.9 67 2.4 WSW 63 76 34 41 1016.6 - 0.0
03/05:23pm 7.7 -5.1 0.4 60 2.9 WSW 57 76 31 41 1016.6 - 0.0
03/05:02pm 7.2 -6.8 2.3 71 2.0 SW 65 91 35 49 1015.6 - 0.0
03/05:00pm 8.0 -4.5 2.0 66 2.5 WSW 57 89 31 48 1015.8 - 0.0
03/04:55pm 8.0 -4.9 1.6 64 2.6 WSW 59 78 32 42 1016.1 - 0.0
03/04:54pm 8.0 -5.3 1.8 65 2.6 WSW 61 78 33 42 1015.9 - 0.0
03/04:47pm 7.9 -1.5 2.6 69 2.2 W 41 70 22 38 1016.4 - 0.0
03/04:30pm 7.0 -2.5 1.7 69 2.2 W 41 69 22 37 1016.6 - 0.0
03/04:27pm 7.0 -2.5 1.5 68 2.2 W 41 80 22 43 1016.3 - 0.0
03/04:12pm 7.8 -6.9 2.3 68 2.3 WSW 69 87 37 47 1015.0 - 0.0
03/04:00pm 7.6 -6.5 3.6 76 1.7 WSW 67 82 36 44 1015.1 - 0.0
03/03:45pm 6.0 -9.2 2.6 79 1.4 SW 72 96 39 52 1015.0 - 0.0
03/03:43pm 6.1 -11.0 2.7 79 1.4 SW 82 96 44 52 1014.4 - 0.0
03/03:30pm 6.0 -6.8 2.6 79 1.4 SW 59 78 32 42 1015.6 - 0.0
03/03:29pm 5.8 -7.0 2.4 79 1.4 SW 59 78 32 42 1015.5 - 0.0
03/03:22pm 5.7 -10.0 2.0 77 1.5 SW 74 78 40 42 1014.8 - 0.0
03/03:09pm 6.7 -4.1 2.0 72 1.9 W 48 74 26 40 1015.0 - 0.0
03/03:00pm 6.9 -4.7 1.8 70 2.1 WSW 52 63 28 34 1015.1 1015.2 0.0
03/02:36pm 6.1 -6.8 2.0 75 1.7 W 59 98 32 53 1014.6 - 0.0
03/02:34pm 6.4 -7.1 2.7 77 1.5 W 63 102 34 55 1014.3 - 0.0
03/02:30pm 6.3 -11.0 2.0 74 1.8 SW 82 102 44 55 1013.4 - 0.0
03/02:01pm 7.6 -9.9 0.6 61 2.8 WSW 82 100 44 54 1013.1 - 0.0
03/02:00pm 7.6 -10.1 0.3 60 2.9 WSW 83 100 45 54 1013.2 - 0.0
03/01:55pm 7.7 -11.1 0.7 61 2.8 WSW 89 100 48 54 1012.4 - 0.0
03/01:49pm 7.9 -6.2 1.7 65 2.6 WSW 65 95 35 51 1013.2 - 0.0
03/01:41pm 7.3 -11.0 1.2 65 2.5 WSW 87 106 47 57 1012.4 - 0.0
03/01:35pm 6.8 -13.0 1.5 69 2.1 SW 95 104 51 56 1011.8 - 0.0
03/01:30pm 8.0 -7.4 1.8 65 2.6 WSW 72 96 39 52 1012.8 - 0.0
03/01:23pm 7.7 -8.6 1.1 63 2.7 WSW 76 106 41 57 1012.9 - 0.0
03/01:22pm 7.5 -10.6 0.3 60 2.9 WSW 85 109 46 59 1012.5 - 0.0
03/01:17pm 7.6 -5.9 0.6 61 2.8 W 61 109 33 59 1012.5 - 0.0
03/01:13pm 7.5 -11.7 0.7 62 2.7 WSW 91 109 49 59 1011.6 - 0.0
03/01:09pm 7.0 -7.3 2.5 73 1.9 WSW 67 115 36 62 1012.4 - 0.0
03/01:05pm 6.4 -7.7 1.7 72 1.9 WSW 65 117 35 63 1012.8 - 0.0
03/01:00pm 6.0 -13.9 1.2 71 1.9 SW 95 117 51 63 1011.2 - 0.0
03/12:52pm 7.5 -11.4 2.2 69 2.2 SW 91 109 49 59 1011.9 - 0.0
03/12:30pm 7.2 -13.0 2.7 73 1.9 SW 98 113 53 61 1010.8 - 0.0
03/12:25pm 7.4 -12.3 1.9 68 2.3 SW 95 113 51 61 1010.9 - 0.0
03/12:18pm 6.8 -12.5 2.1 72 1.9 SW 93 106 50 57 1011.0 - 0.0
03/12:00pm 6.6 -8.1 2.7 76 1.6 SW 69 91 37 49 1011.6 1011.7 0.0
03/11:59am 6.5 -8.7 2.6 76 1.6 SW 72 91 39 49 1011.6 - 0.0
03/11:58am 6.4 -10.0 2.5 76 1.6 SW 78 91 42 49 1011.6 - 0.0
03/11:53am 6.2 -5.7 1.9 74 1.7 SSW 54 109 29 59 1010.9 - 0.0
03/11:50am 6.7 -2.3 2.6 75 1.7 W 39 120 21 65 1010.6 - 0.0
03/11:48am 7.4 -8.3 2.1 69 2.2 WSW 74 120 40 65 1011.2 - 0.0
03/11:46am 8.0 -13.2 1.2 62 2.8 SW 102 120 55 65 1011.1 - 0.0
03/11:41am 7.9 -13.8 0.6 60 2.9 WSW 104 120 56 65 1010.1 - 0.0
03/11:30am 7.9 -6.8 0.2 58 3.1 W 67 93 36 50 1011.2 - 0.0
03/11:00am 7.1 -7.0 1.4 67 2.3 W 65 87 35 47 1011.2 - 0.0
03/10:43am 7.0 -8.9 0.9 65 2.4 W 74 119 40 64 1010.5 - 0.0
03/10:39am 6.8 -13.6 1.3 68 2.2 WSW 98 132 53 71 1009.6 - 0.0
03/10:36am 6.5 -14.6 2.0 73 1.8 WSW 102 132 55 71 1009.4 - 0.0
03/10:30am 6.4 -18.4 2.5 76 1.6 SW 122 146 66 79 1008.3 - 0.0
03/10:27am 6.7 -18.8 2.6 75 1.7 SW 126 146 68 79 1007.7 - 0.0
03/10:24am 6.4 -20.4 1.7 72 1.9 SW 132 146 71 79 1006.9 - 0.0
03/10:22am 6.9 -10.1 1.2 67 2.3 W 80 133 43 72 1008.4 - 0.0
03/10:13am 7.6 -10.9 0.1 59 3.0 WSW 87 109 47 59 1009.0 - 0.0
03/10:00am 7.4 -6.8 0.8 63 2.6 W 65 104 35 56 1009.9 - 0.0
03/09:55am 7.5 -6.1 2.0 68 2.3 W 63 111 34 60 1010.3 - 0.0
03/09:49am 7.4 -6.3 1.9 68 2.3 W 63 113 34 61 1010.1 - 0.0
03/09:46am 7.3 -12.2 1.0 64 2.5 WSW 93 113 50 61 1008.5 - 0.0
03/09:30am 6.5 -7.8 2.4 75 1.7 W 67 106 36 57 1009.4 - 0.0
03/09:21am 6.0 -8.9 2.5 78 1.4 W 70 128 38 69 1009.4 - 0.0
03/09:19am 5.6 -9.3 2.3 79 1.3 W 70 141 38 76 1009.2 - 0.0
03/09:14am 5.2 -14.7 1.9 79 1.3 WSW 96 141 52 76 1008.1 - 0.0
03/09:12am 5.2 -19.7 1.9 79 1.3 WSW 122 141 66 76 1007.0 - 0.0
03/09:09am 5.8 -19.0 2.3 78 1.4 WSW 122 139 66 75 1006.5 - 0.0
03/09:08am 6.4 -12.8 2.7 77 1.5 WSW 93 139 50 75 1006.9 - 0.0
03/09:06am 6.7 -10.0 2.8 76 1.6 W 80 119 43 64 1008.5 - 0.0
03/09:01am 6.3 -14.2 2.9 79 1.4 SW 100 120 54 65 1008.0 - 0.0
03/09:00am 6.2 -14.7 2.8 79 1.4 SW 102 120 55 65 1008.0 1008.1 16.4
03/08:59am 6.4 -14.1 3.2 80 1.3 SW 100 120 54 65 1008.2 - 16.4
03/08:55am 6.2 -13.5 3.0 80 1.3 SW 96 139 52 75 1007.6 - 16.4
03/08:49am 5.6 -18.9 2.1 78 1.4 SW 120 139 65 75 1006.7 - 16.4
03/08:47am 5.8 -19.0 2.3 78 1.4 SW 122 139 66 75 1005.5 - 16.4
03/08:46am 6.0 -14.6 2.5 78 1.4 SW 100 139 54 75 1006.1 - 16.4
03/08:45am 6.4 -13.4 2.9 78 1.5 SW 96 119 52 64 1007.0 - 16.4
03/08:42am 6.2 -14.8 2.3 76 1.6 SW 102 113 55 61 1007.1 - 16.4
03/08:30am 6.9 -7.9 3.2 77 1.6 WSW 70 106 38 57 1008.5 - 16.4
03/08:23am 6.7 -10.6 3.0 77 1.6 WSW 83 106 45 57 1008.3 - 16.4
03/08:21am 6.8 -12.4 3.1 77 1.6 WSW 93 106 50 57 1007.6 - 16.4
03/08:15am 6.6 -7.2 3.2 79 1.4 W 65 113 35 61 1008.5 - 16.4
03/08:13am 6.2 -8.4 2.8 79 1.4 W 69 117 37 63 1008.1 - 16.4
03/08:11am 6.4 -13.7 3.0 79 1.4 WSW 98 117 53 63 1007.5 - 16.4
03/08:05am 5.9 -16.1 2.2 77 1.5 SW 107 117 58 63 1006.6 - 16.4
03/08:00am 6.7 -11.8 2.2 73 1.9 WSW 89 120 48 65 1007.1 - 16.4
03/07:42am 7.0 -11.7 3.3 77 1.6 WSW 91 111 49 60 1006.8 - 16.4
03/07:40am 6.8 -13.4 2.7 75 1.7 SW 98 111 53 60 1006.1 - 16.4
03/07:33am 7.1 -7.8 1.2 66 2.4 W 69 113 37 61 1006.5 - 16.4
03/07:32am 7.3 -6.4 1.4 66 2.4 W 63 119 34 64 1006.6 - 16.4
03/07:30am 7.2 -10.5 0.4 62 2.7 W 83 119 45 64 1006.5 - 16.4
03/07:00am 7.8 -11.8 3.8 76 1.7 WSW 96 119 52 64 1004.6 - 16.4
03/06:50am 7.5 -13.6 3.7 77 1.6 SW 104 124 56 67 1004.1 - 16.4
03/06:46am 7.5 -9.6 2.6 71 2.1 W 82 113 44 61 1005.6 - 16.4
03/06:30am 7.0 -12.2 3.1 76 1.6 W 93 126 50 68 1003.4 - 16.4
03/06:28am 7.0 -11.4 3.3 77 1.6 W 89 119 48 64 1003.9 - 16.4
03/06:17am 5.6 -8.8 2.3 79 1.3 W 67 130 36 70 1005.5 - 16.4
03/06:15am 5.3 -14.1 1.8 78 1.4 W 93 130 50 70 1004.8 - 16.4
03/06:12am 6.5 -13.3 2.6 76 1.6 W 96 130 52 70 1002.6 - 16.0
03/06:00am 8.0 -5.3 3.7 74 1.9 W 63 89 34 48 1004.6 1004.7 16.0
03/05:30am 7.4 -6.3 4.0 79 1.5 W 65 95 35 51 1004.4 - 16.0
03/05:23am 7.0 -6.3 3.8 80 1.4 W 63 91 34 49 1005.1 - 16.0
03/05:12am 6.4 -10.6 3.7 83 1.1 W 82 132 44 71 1004.1 - 16.0
03/05:03am 6.5 -16.0 3.7 82 1.2 WSW 111 132 60 71 1001.9 - 16.0
03/05:01am 6.8 -16.0 3.9 82 1.2 SW 113 126 61 68 1002.2 - 16.0
03/05:00am 6.8 -9.0 3.8 81 1.3 W 76 124 41 67 1002.2 - 16.0
03/04:46am 7.4 -6.6 4.4 81 1.3 W 67 109 36 59 1002.9 - 16.0
03/04:30am 7.5 -5.5 5.5 87 0.9 W 63 83 34 45 1004.2 - 16.0
03/04:10am 7.0 -7.7 5.3 89 0.8 W 72 115 39 62 1003.4 - 16.0
03/04:08am 6.8 -8.7 5.1 89 0.8 W 76 124 41 67 1002.9 - 16.0
03/04:00am 6.4 -13.1 4.4 87 0.9 WSW 96 124 52 67 1002.0 - 16.0
03/03:30am 7.6 -6.6 6.1 90 0.7 W 70 102 38 55 1002.7 - 15.8
03/03:00am 8.4 -6.2 5.9 84 1.1 W 72 122 39 66 1002.5 1002.6 15.2
03/02:59am 8.6 -6.0 6.1 84 1.1 W 72 122 39 66 1002.6 - 15.2
03/02:58am 9.2 -4.3 6.8 85 1.1 W 67 89 36 48 1003.2 - 15.2
03/02:50am 8.7 0.5 6.5 86 1.0 W 39 87 21 47 1004.1 - 15.2
03/02:30am 8.5 -4.2 7.0 90 0.7 W 63 91 34 49 1003.6 - 15.2
03/02:10am 7.5 -6.7 6.1 91 0.6 W 70 93 38 50 1003.5 - 15.0
03/02:00am 7.4 -3.0 5.9 90 0.7 W 50 115 27 62 1004.6 - 15.0
03/01:58am 7.5 -4.6 6.0 90 0.7 W 59 115 32 62 1004.0 - 15.0
03/01:56am 7.9 -8.7 6.4 90 0.7 W 83 115 45 62 1003.4 - 15.0
03/01:40am 7.5 -8.2 6.0 90 0.7 W 78 98 42 53 1003.5 - 14.6
03/01:30am 8.3 -2.3 6.8 90 0.7 W 52 91 28 49 1004.1 - 13.8
03/01:18am 7.7 -2.0 6.0 89 0.8 W 46 98 25 53 1004.4 - 13.6
03/01:00am 8.3 -5.7 6.1 86 1.0 W 69 106 37 57 1003.7 - 13.2
03/12:45am 7.9 -4.6 6.2 89 0.8 W 61 137 33 74 1004.1 - 13.2
03/12:38am 7.7 -10.8 6.3 91 0.6 W 93 124 50 67 1003.0 - 13.0
03/12:30am 7.9 -6.6 6.5 91 0.6 W 72 109 39 59 1004.0 - 12.6
03/12:26am 7.7 -8.4 6.2 90 0.7 W 80 109 43 59 1003.1 - 12.6
03/12:07am 8.4 -2.6 7.0 91 0.7 W 54 98 29 53 1003.8 - 11.8
03/12:00am 8.4 -1.4 6.9 90 0.7 W 48 74 26 40 1004.0 1004.1 11.6
 
Date/Time
EST
Temp
°C
App
Temp
°C
Dew
Point
Rel
Hum
%
Delta-T
°C
Wind Press
QNH
hPa
Press
MSL
hPa
Rain
since 9 am
mm
Dir
 
Spd
km/h
Gust
km/h
Spd
kts
Gust
kts
02/11:59pm 8.4 -1.4 6.9 90 0.7 W 48 74 26 40 1003.8 - 11.4
02/11:47pm 8.6 0.4 6.7 88 0.9 WNW 39 85 21 46 1004.5 - 9.4
02/11:38pm 8.9 2.1 7.0 88 0.9 WNW 32 59 17 32 1004.6 - 8.6
02/11:30pm 8.8 3.9 6.9 88 0.9 WNW 22 54 12 29 1004.7 - 8.4
02/11:02pm 8.8 4.8 6.8 87 0.9 NNW 17 93 9 50 1005.3 - 8.4
02/11:00pm 8.8 0.7 6.8 87 0.9 WNW 39 93 21 50 1004.9 - 8.4
02/10:30pm 8.9 -1.1 6.3 84 1.2 W 48 80 26 43 1005.3 - 7.6
02/10:12pm 8.0 -3.3 5.3 83 1.2 W 54 107 29 58 1004.8 - 7.6
02/10:00pm 7.9 -9.5 4.1 77 1.7 W 85 137 46 74 1004.6 - 6.8
02/09:58pm 8.7 -9.8 4.3 74 1.9 W 91 137 49 74 1003.8 - 5.8
02/09:57pm 9.4 -1.7 4.6 72 2.1 W 52 137 28 74 1003.9 - 5.6
02/09:30pm 10.0 0.7 6.0 76 1.9 W 44 76 24 41 1005.6 - 5.6
02/09:00pm 9.8 -1.0 6.0 77 1.8 W 52 70 28 38 1005.8 1005.8 5.6
02/08:47pm 9.4 2.5 6.3 81 1.4 W 32 69 17 37 1006.2 - 5.6
02/08:30pm 9.4 -2.3 6.1 80 1.5 W 57 80 31 43 1005.8 - 5.6
02/08:11pm 9.2 -4.4 6.1 81 1.4 W 67 93 36 50 1005.2 - 5.6
02/08:10pm 9.5 0.9 6.4 81 1.4 W 41 93 22 50 1005.0 - 5.6
02/08:00pm 9.5 0.9 6.6 82 1.4 W 41 59 22 32 1006.1 - 5.6
02/07:42pm 9.2 -1.0 6.8 85 1.1 W 50 85 27 46 1005.8 - 5.6
02/07:30pm 8.8 -0.1 6.8 87 0.9 W 43 63 23 34 1006.1 - 5.6
02/07:16pm 8.2 -0.7 6.7 90 0.7 W 43 93 23 50 1006.1 - 5.6
02/07:00pm 8.0 -5.2 6.5 90 0.7 W 65 95 35 51 1005.7 - 5.2
02/06:30pm 7.7 -3.7 6.5 92 0.6 W 56 76 30 41 1005.7 - 5.0
02/06:07pm 8.6 -3.7 7.1 90 0.7 W 61 80 33 43 1005.3 - 4.2
02/06:00pm 8.5 1.2 7.0 90 0.7 W 35 57 19 31 1005.9 1005.9 4.0
02/05:30pm 8.3 -0.8 6.6 89 0.8 W 44 65 24 35 1005.7 - 3.8
02/05:06pm 8.3 -0.3 6.6 89 0.8 W 41 65 22 35 1005.5 - 3.6
02/05:00pm 8.4 -0.2 6.7 89 0.8 W 41 57 22 31 1005.5 - 3.6
02/04:51pm 8.2 -0.4 6.5 89 0.8 W 41 69 22 37 1005.5 - 3.6
02/04:34pm 8.3 -4.1 6.6 89 0.8 W 61 80 33 43 1004.9 - 3.6
02/04:30pm 8.2 -5.0 6.5 89 0.8 W 65 80 35 43 1004.7 - 3.6
02/04:29pm 8.3 -4.8 6.6 89 0.8 W 65 80 35 43 1004.6 - 3.6
02/04:04pm 8.6 0.4 6.7 88 0.9 W 39 74 21 40 1005.2 - 3.2
02/04:00pm 8.4 -3.6 6.4 87 0.9 W 59 78 32 42 1004.8 - 3.2
02/03:30pm 8.5 -4.0 5.8 83 1.2 W 61 119 33 64 1004.0 - 2.4
02/03:28pm 8.4 -5.0 5.5 82 1.3 W 65 119 35 64 1003.7 - 2.4
02/03:25pm 8.0 -10.1 4.9 81 1.4 W 89 119 48 64 1003.9 - 2.0
02/03:24pm 7.9 -11.9 4.7 80 1.4 W 98 119 53 64 1002.6 - 1.4
02/03:22pm 9.1 -5.6 5.7 79 1.6 W 72 119 39 64 1002.6 - 0.8
02/03:00pm 11.0 2.2 5.7 70 2.5 WNW 41 76 22 41 1003.4 1003.5 0.0
02/02:30pm 10.9 1.8 5.7 70 2.4 WNW 43 83 23 45 1003.8 - 0.0
02/02:06pm 10.7 1.3 5.5 70 2.4 WNW 44 91 24 49 1004.0 - 0.0
02/02:00pm 10.7 -3.0 5.5 70 2.4 WNW 67 91 36 49 1003.5 - 0.0
02/01:30pm 10.5 1.6 5.1 69 2.5 W 41 87 22 47 1004.2 - 0.0
02/12:30pm 10.3 1.1 5.3 71 2.3 WNW 43 83 23 45 1005.2 - 0.0
02/12:15pm 10.0 0.5 5.0 71 2.3 WNW 44 89 24 48 1005.0 - 0.0
02/12:13pm 10.0 -3.9 5.0 71 2.3 WNW 67 89 36 48 1004.6 - 0.0
02/12:01pm 10.1 2.0 5.3 72 2.2 WNW 37 96 20 52 1005.8 - 0.0
02/12:00pm 10.0 -2.3 5.2 72 2.2 WNW 59 96 32 52 1005.6 1005.6 0.0
02/11:49am 9.8 -5.3 5.2 73 2.1 WNW 74 104 40 56 1005.2 - 0.0
02/11:30am 9.8 -1.5 5.4 74 2.0 WNW 54 96 29 52 1006.3 - 0.0
02/11:28am 9.7 -2.9 5.5 75 1.9 WNW 61 96 33 52 1006.0 - 0.0
02/11:24am 9.7 1.3 5.5 75 1.9 WNW 39 96 21 52 1006.8 - 0.0
02/11:22am 9.5 -4.9 5.3 75 1.9 WNW 70 96 38 52 1005.8 - 0.0
02/11:00am 9.2 -0.3 5.0 75 1.9 WNW 44 93 24 50 1006.9 - 0.0
02/10:30am 9.0 -1.3 4.8 75 1.9 WNW 48 96 26 52 1007.9 - 0.0
02/10:21am 8.9 0.0 4.9 76 1.8 W 41 96 22 52 1007.4 - 0.0
02/10:10am 8.7 -0.6 4.9 77 1.7 W 43 61 23 33 1007.8 - 0.0
02/10:00am 8.5 2.0 4.7 77 1.7 NW 28 59 15 32 1008.1 - 0.0
02/09:49am 8.4 1.1 4.4 76 1.8 W 32 56 17 30 1008.3 - 0.0
02/09:30am 8.6 4.2 4.6 76 1.8 NNW 17 35 9 19 1008.6 - 0.0
02/09:00am 8.4 4.0 4.6 77 1.7 NNW 17 35 9 19 1009.0 1009.1 0.6
02/08:30am 7.9 3.0 4.3 78 1.6 NNW 19 46 10 25 1009.6 - 0.6
02/08:23am 7.9 1.3 4.3 78 1.6 WNW 28 48 15 26 1009.5 - 0.6
02/08:00am 7.8 3.3 4.2 78 1.6 N 17 50 9 27 1009.9 - 0.6
02/07:30am 7.8 3.7 4.4 79 1.5 N 15 37 8 20 1010.0 - 0.6
02/07:00am 7.9 3.5 4.7 80 1.4 NNW 17 35 9 19 1010.0 - 0.6
02/06:30am 7.8 3.0 4.4 79 1.5 NNW 19 39 10 21 1010.1 - 0.6
02/06:00am 7.8 3.7 4.6 80 1.4 N 15 39 8 21 1010.1 1010.2 0.6
02/05:30am 7.9 3.9 4.7 80 1.4 N 15 43 8 23 1010.2 - 0.6
02/05:09am 8.0 1.5 4.8 80 1.4 NW 28 46 15 25 1010.1 - 0.6
02/05:00am 8.1 4.8 4.7 79 1.5 W 11 39 6 21 1010.5 - 0.6
02/04:30am 8.1 4.1 4.7 79 1.5 NW 15 37 8 20 1010.7 - 0.6
02/04:00am 8.1 2.0 4.7 79 1.5 NW 26 52 14 28 1011.0 - 0.6
02/03:30am 8.3 2.6 4.9 79 1.5 NW 24 46 13 25 1011.3 - 0.6
02/03:00am 8.8 4.2 5.4 79 1.5 WNW 19 26 10 14 1011.9 1012.0 0.6
02/02:30am 8.7 4.4 5.3 79 1.5 WNW 17 35 9 19 1012.1 - 0.6
02/02:00am 8.9 4.7 5.5 79 1.5 WNW 17 37 9 20 1012.2 - 0.6
02/01:30am 9.0 4.7 5.4 78 1.6 WNW 17 30 9 16 1012.5 - 0.6
02/01:00am 8.9 5.0 5.3 78 1.6 W 15 28 8 15 1012.7 - 0.6
02/12:30am 8.5 3.2 4.9 78 1.6 NW 22 39 12 21 1012.9 - 0.6
02/12:00am 8.4 3.6 4.4 76 1.8 WNW 19 32 10 17 1013.1 1013.2 0.6
 
Date/Time
EST
Temp
°C
App
Temp
°C
Dew
Point
Rel
Hum
%
Delta-T
°C
Wind Press
QNH
hPa
Press
MSL
hPa
Rain
since 9 am
mm
Dir
 
Spd
km/h
Gust
km/h
Spd
kts
Gust
kts
01/11:30pm 8.7 3.7 4.5 75 1.9 NNW 20 32 11 17 1013.3 - 0.6
01/11:00pm 8.8 4.7 4.2 73 2.0 WNW 15 28 8 15 1013.6 - 0.6
01/10:30pm 8.9 3.5 4.3 73 2.0 WNW 22 35 12 19 1013.6 - 0.6
01/10:00pm 8.7 6.1 4.1 73 2.0 N 7 15 4 8 1013.9 - 0.6
01/09:30pm 8.9 3.5 4.3 73 2.0 NW 22 32 12 17 1013.9 - 0.6
01/09:10pm 9.5 2.9 4.1 69 2.4 W 28 50 15 27 1013.7 - 0.6
01/09:00pm 9.3 3.1 4.3 71 2.2 W 26 43 14 23 1013.8 1013.9 0.6
01/08:30pm 9.2 2.2 4.0 70 2.3 W 30 44 16 24 1013.7 - 0.6
01/08:00pm 9.0 3.2 4.4 73 2.0 W 24 35 13 19 1013.9 - 0.6
01/07:41pm 8.9 1.6 4.3 73 2.0 W 32 57 17 31 1013.6 - 0.6

Other Formats:

Comma delimited format used in spreadsheet applications
http://www.bom.gov.au/fwo/IDV60801/IDV60801.94893.axf

JavaScript Object Notation format (JSON) in row-major order
http://www.bom.gov.au/fwo/IDV60801/IDV60801.94893.json